Friar, Texas
Current Conditions -  °F | °C
As of 10:55 AM on Sunday 23 Nov 2014 (Local Time) from KRFI Reporting Station
Overcast Overcast  
Wind Chill: 65°   Ceiling: 1200
Heat Index: 65°   Visibility: 10mi
Dew Point: 59°   Wind: 7mph
Humidity: 83%   Direction: 230°SW
Pressure: 29.55"   Gusts: NA
Location:  32.2818°N, 94.951°W
Report Text: KRFI 231655Z AUTO 23006KT 10SM OVC012 18/15 A2955 RMK AO2 T01810151
Loading
Personal Weather Stations






























Interactive Weather Map New forecast layout! Learn more

10-Day Weather Forecast

Advertisements
Track Severe Weather on mobile